createdAt,value
2023-01-27T00:00:59.008Z,11.80
2023-01-27T00:03:25.285Z,15.97
2023-01-27T00:05:51.432Z,11.23
2023-01-27T00:08:17.879Z,14.23
2023-01-27T00:10:44.164Z,13.70
2023-01-27T00:13:35.728Z,9.80
2023-01-27T00:16:02.646Z,10.30
2023-01-27T00:18:28.827Z,19.33
2023-01-27T00:21:13.622Z,11.70
2023-01-27T00:23:57.877Z,18.10
2023-01-27T00:26:24.122Z,18.27
2023-01-27T00:28:50.359Z,12.07
2023-01-27T00:31:35.546Z,13.27
2023-01-27T00:34:08.087Z,12.87
2023-01-27T00:36:35.130Z,12.40
2023-01-27T00:39:01.319Z,16.53
2023-01-27T00:41:28.050Z,14.13
2023-01-27T00:43:54.617Z,16.87
2023-01-27T00:46:22.785Z,13.43
2023-01-27T00:48:49.208Z,13.73
2023-01-27T00:51:16.693Z,22.47
2023-01-27T00:53:42.889Z,15.60
2023-01-27T00:56:09.058Z,16.43
2023-01-27T00:58:35.419Z,15.57
2023-01-27T01:01:03.323Z,14.83
2023-01-27T01:03:31.694Z,13.70
2023-01-27T01:05:58.157Z,14.77
2023-01-27T01:08:24.436Z,17.73
2023-01-27T01:10:50.880Z,17.63
2023-01-27T01:13:17.066Z,14.10
2023-01-27T01:15:43.504Z,14.53
2023-01-27T01:18:10.497Z,16.47
2023-01-27T01:20:38.717Z,14.43
2023-01-27T01:23:04.986Z,24.20
2023-01-27T01:25:31.077Z,18.97
2023-01-27T01:27:57.190Z,20.10
2023-01-27T01:30:25.527Z,19.60
2023-01-27T01:32:51.712Z,20.07
2023-01-27T01:35:17.854Z,20.00
2023-01-27T01:37:44.587Z,23.97
2023-01-27T01:40:12.160Z,15.80
2023-01-27T01:42:56.068Z,21.97
2023-01-27T01:45:46.223Z,19.93
2023-01-27T01:48:16.654Z,21.73
2023-01-27T01:50:46.155Z,16.37
2023-01-27T01:53:12.964Z,16.17
2023-01-27T01:55:40.137Z,17.47
2023-01-27T01:58:07.600Z,14.03
2023-01-27T02:00:34.029Z,19.90
2023-01-27T02:03:00.961Z,19.83
2023-01-27T02:05:30.278Z,19.93
2023-01-27T02:07:58.854Z,15.27
2023-01-27T02:10:25.764Z,19.10
2023-01-27T02:12:52.376Z,18.70
2023-01-27T02:15:20.615Z,16.57
2023-01-27T02:17:47.195Z,24.60
2023-01-27T02:20:20.389Z,21.87
2023-01-27T02:22:51.324Z,19.17
2023-01-27T02:25:21.256Z,20.40
2023-01-27T02:27:48.059Z,20.03
2023-01-27T02:30:14.198Z,20.57
2023-01-27T02:32:40.344Z,22.60
2023-01-27T02:35:08.857Z,18.90
2023-01-27T02:37:35.347Z,15.87
2023-01-27T02:40:02.920Z,18.43
2023-01-27T02:42:29.121Z,13.07
2023-01-27T02:44:55.881Z,15.63
2023-01-27T02:47:22.106Z,16.00
2023-01-27T02:49:48.785Z,13.73
2023-01-27T02:52:14.917Z,9.57
2023-01-27T02:54:41.261Z,10.83
2023-01-27T02:57:07.398Z,13.23
2023-01-27T02:59:33.596Z,12.50
2023-01-27T03:02:00.350Z,13.30
2023-01-27T03:04:26.495Z,10.63
2023-01-27T03:06:52.798Z,11.60
2023-01-27T03:09:19.040Z,11.63
2023-01-27T03:12:03.678Z,14.00
2023-01-27T03:14:48.087Z,13.07
2023-01-27T03:17:33.305Z,13.97
2023-01-27T03:19:59.549Z,15.50
2023-01-27T03:22:25.728Z,16.60
2023-01-27T03:24:51.903Z,16.63
2023-01-27T03:27:18.028Z,18.37
2023-01-27T03:29:56.586Z,19.83
2023-01-27T03:32:23.999Z,17.87
2023-01-27T03:34:50.118Z,17.07
2023-01-27T03:37:34.883Z,16.50
2023-01-27T03:40:19.181Z,15.33
2023-01-27T03:43:03.785Z,18.53
2023-01-27T03:45:48.325Z,19.33
2023-01-27T03:48:17.669Z,16.20
2023-01-27T03:50:43.913Z,13.93
2023-01-27T03:53:10.621Z,14.20
2023-01-27T03:55:37.639Z,14.87
2023-01-27T03:58:13.703Z,15.70
2023-01-27T04:00:40.133Z,14.30
2023-01-27T04:03:24.514Z,13.90
2023-01-27T04:06:09.848Z,11.90
2023-01-27T04:08:35.940Z,13.80
2023-01-27T04:11:21.048Z,18.17
2023-01-27T04:13:47.146Z,11.70
2023-01-27T04:16:13.360Z,10.77
2023-01-27T04:18:39.515Z,13.83
2023-01-27T04:21:06.382Z,10.23
2023-01-27T04:23:32.529Z,11.17
2023-01-27T04:25:59.558Z,9.47
2023-01-27T04:28:43.281Z,11.77
2023-01-27T04:31:10.220Z,10.70
2023-01-27T04:33:36.408Z,12.43
2023-01-27T04:36:02.649Z,11.03
2023-01-27T04:38:29.598Z,12.83
2023-01-27T04:40:55.861Z,13.67
2023-01-27T04:43:21.988Z,10.07
2023-01-27T04:45:48.416Z,14.07
2023-01-27T04:48:14.566Z,15.40
2023-01-27T04:50:40.664Z,13.57
2023-01-27T04:53:06.775Z,14.77
2023-01-27T04:55:33.586Z,15.20
2023-01-27T04:57:59.743Z,17.13
2023-01-27T05:00:26.289Z,13.97
2023-01-27T05:02:52.438Z,13.40
2023-01-27T05:05:18.620Z,17.10
2023-01-27T05:07:44.740Z,18.43
2023-01-27T05:10:11.317Z,18.87
2023-01-27T05:12:38.175Z,16.63
2023-01-27T05:15:05.325Z,19.30
2023-01-27T05:17:31.736Z,24.57
2023-01-27T05:19:57.850Z,20.50
2023-01-27T05:22:24.209Z,23.17
2023-01-27T05:24:50.345Z,16.20
2023-01-27T05:27:16.916Z,24.07
2023-01-27T05:29:43.674Z,20.10
2023-01-27T05:32:10.084Z,19.03
2023-01-27T05:34:36.215Z,21.57
2023-01-27T05:37:02.394Z,19.17
2023-01-27T05:39:28.589Z,19.50
2023-01-27T05:41:54.729Z,22.93
2023-01-27T05:44:20.866Z,21.47
2023-01-27T05:46:47.721Z,19.40
2023-01-27T05:49:13.887Z,22.63
2023-01-27T05:51:40.200Z,21.90
2023-01-27T05:54:07.122Z,22.97
2023-01-27T05:56:33.769Z,21.13
2023-01-27T05:59:00.176Z,21.63
2023-01-27T06:01:28.146Z,19.83
2023-01-27T06:03:55.251Z,22.40
2023-01-27T06:06:23.186Z,25.67
2023-01-27T06:08:49.383Z,21.93
2023-01-27T06:11:18.998Z,20.53
2023-01-27T06:13:45.241Z,27.00
2023-01-27T06:16:13.547Z,21.33
2023-01-27T06:18:40.180Z,19.77
2023-01-27T06:21:08.253Z,19.33
2023-01-27T06:23:34.567Z,20.87
2023-01-27T06:26:01.874Z,21.30
2023-01-27T06:28:29.681Z,17.00
2023-01-27T06:30:56.502Z,20.07
2023-01-27T06:33:22.760Z,22.50
2023-01-27T06:35:48.882Z,19.20
2023-01-27T06:38:15.715Z,19.23
2023-01-27T06:40:42.244Z,19.03
2023-01-27T06:43:11.389Z,21.90
2023-01-27T06:45:37.491Z,18.10
2023-01-27T06:48:04.233Z,18.87
2023-01-27T06:50:30.356Z,21.77
2023-01-27T06:52:59.929Z,18.73
2023-01-27T06:55:27.017Z,20.40
2023-01-27T06:57:53.137Z,19.13
2023-01-27T07:00:19.791Z,19.43
2023-01-27T07:02:46.020Z,17.17
2023-01-27T07:05:12.746Z,19.33
2023-01-27T07:07:38.931Z,19.07
2023-01-27T07:10:06.331Z,19.27
2023-01-27T07:12:36.909Z,20.73
2023-01-27T07:15:04.357Z,16.47
2023-01-27T07:17:30.595Z,21.57
2023-01-27T07:19:57.812Z,20.63
2023-01-27T07:22:23.917Z,19.57
2023-01-27T07:24:50.078Z,18.63
2023-01-27T07:27:16.366Z,18.77
2023-01-27T07:29:43.353Z,21.70
2023-01-27T07:32:09.526Z,21.90
2023-01-27T07:34:35.640Z,23.57
2023-01-27T07:37:02.520Z,19.13
2023-01-27T07:39:28.787Z,17.67
2023-01-27T07:41:54.903Z,18.50
2023-01-27T07:44:21.089Z,19.90
2023-01-27T07:46:47.876Z,20.07
2023-01-27T07:49:13.997Z,21.23
2023-01-27T07:51:40.096Z,20.73
2023-01-27T07:54:06.379Z,18.73
2023-01-27T07:56:32.616Z,18.10
2023-01-27T07:58:58.722Z,21.23
2023-01-27T08:01:24.868Z,21.17
2023-01-27T08:03:51.589Z,17.10
2023-01-27T08:06:17.678Z,19.87
2023-01-27T08:08:43.930Z,24.97
2023-01-27T08:11:12.804Z,18.17
2023-01-27T08:13:39.042Z,19.07
2023-01-27T08:16:08.040Z,15.70
2023-01-27T08:18:34.518Z,17.20
2023-01-27T08:21:02.590Z,16.63
2023-01-27T08:23:28.905Z,16.47
2023-01-27T08:25:56.184Z,15.57
2023-01-27T08:28:23.231Z,15.20
2023-01-27T08:30:51.000Z,15.40
2023-01-27T08:33:17.604Z,13.80
2023-01-27T08:35:44.174Z,12.60
2023-01-27T08:38:11.450Z,25.70
2023-01-27T08:40:38.139Z,18.23
2023-01-27T08:43:05.163Z,12.00
2023-01-27T08:45:31.453Z,15.37
2023-01-27T08:47:57.592Z,13.80
2023-01-27T08:50:23.733Z,18.33
2023-01-27T08:52:49.848Z,11.80
2023-01-27T08:55:16.666Z,17.10
2023-01-27T08:57:42.802Z,14.53
2023-01-27T09:00:10.810Z,14.90
2023-01-27T09:02:37.059Z,17.00
2023-01-27T09:05:03.342Z,15.67
2023-01-27T09:07:29.646Z,15.40
2023-01-27T09:10:07.718Z,14.13
2023-01-27T09:12:39.869Z,13.53
2023-01-27T09:15:07.313Z,15.40
2023-01-27T09:17:33.454Z,14.97
2023-01-27T09:19:59.554Z,15.13
2023-01-27T09:22:25.688Z,16.87
2023-01-27T09:24:52.238Z,14.03
2023-01-27T09:27:22.486Z,16.63
2023-01-27T09:29:56.790Z,17.83
2023-01-27T09:32:22.918Z,14.33
2023-01-27T09:34:49.044Z,14.43
2023-01-27T09:37:15.169Z,14.67
2023-01-27T09:39:43.490Z,12.90
2023-01-27T09:42:34.902Z,15.10
2023-01-27T09:45:21.873Z,19.90
2023-01-27T09:48:08.547Z,17.33
2023-01-27T09:50:42.148Z,13.73
2023-01-27T09:53:32.767Z,15.23
2023-01-27T09:56:02.623Z,14.67
2023-01-27T09:58:38.986Z,14.77
2023-01-27T10:01:11.124Z,17.30
2023-01-27T10:04:06.879Z,15.03
2023-01-27T10:06:49.029Z,24.70
2023-01-27T10:09:51.103Z,18.27
2023-01-27T10:12:27.451Z,15.83
2023-01-27T10:15:03.311Z,21.00
2023-01-27T10:17:38.131Z,17.43
2023-01-27T10:20:18.953Z,18.63
2023-01-27T10:22:50.754Z,21.77
2023-01-27T10:25:25.270Z,13.87
2023-01-27T10:27:55.568Z,13.07
2023-01-27T10:30:27.525Z,13.73
2023-01-27T10:32:58.188Z,12.33
2023-01-27T10:35:29.691Z,11.53
2023-01-27T10:38:02.912Z,14.20
2023-01-27T10:40:35.498Z,9.43
2023-01-27T10:43:06.429Z,9.13
2023-01-27T10:45:36.792Z,10.07
2023-01-27T10:48:18.359Z,10.03
2023-01-27T10:50:47.217Z,9.63
2023-01-27T10:53:16.097Z,11.07
2023-01-27T10:55:46.395Z,16.00
2023-01-27T10:58:16.194Z,12.20
2023-01-27T11:01:18.019Z,10.03
2023-01-27T11:03:33.441Z,17.43
2023-01-27T11:06:03.454Z,12.77
2023-01-27T11:08:32.817Z,11.23
2023-01-27T11:11:19.156Z,14.10
2023-01-27T11:13:45.749Z,10.10
2023-01-27T11:16:14.807Z,10.40
2023-01-27T11:18:45.154Z,8.67
2023-01-27T11:21:15.336Z,12.80
2023-01-27T11:23:45.041Z,9.00
2023-01-27T11:26:18.595Z,11.53
2023-01-27T11:28:48.296Z,20.70
2023-01-27T11:31:20.783Z,13.67
2023-01-27T11:33:57.315Z,18.53
2023-01-27T11:36:24.030Z,12.57
2023-01-27T11:38:50.197Z,17.37
2023-01-27T11:41:16.453Z,15.63
2023-01-27T11:43:42.643Z,20.90
2023-01-27T11:46:13.078Z,17.37
2023-01-27T11:48:41.932Z,14.30
2023-01-27T11:51:13.330Z,19.67
2023-01-27T11:53:40.476Z,14.77
2023-01-27T11:56:10.196Z,15.17
2023-01-27T11:58:40.653Z,20.13
2023-01-27T12:01:12.129Z,14.63
2023-01-27T12:03:48.314Z,12.73
2023-01-27T12:06:17.353Z,15.80
2023-01-27T12:08:45.034Z,16.03
2023-01-27T12:11:22.949Z,14.10
2023-01-27T12:13:51.109Z,12.50
2023-01-27T12:16:17.624Z,13.13
2023-01-27T12:18:53.894Z,12.97
2023-01-27T12:21:21.884Z,12.73
2023-01-27T12:23:49.704Z,13.43
2023-01-27T12:26:16.088Z,14.17
2023-01-27T12:28:48.103Z,12.77
2023-01-27T12:31:21.756Z,13.47
2023-01-27T12:33:51.970Z,12.73
2023-01-27T12:36:21.792Z,14.80
2023-01-27T12:38:50.624Z,11.37
2023-01-27T12:41:22.055Z,13.33
2023-01-27T12:43:52.378Z,14.07
2023-01-27T12:46:22.090Z,12.40
2023-01-27T12:48:49.694Z,12.23
2023-01-27T12:51:18.621Z,15.57
2023-01-27T12:53:47.876Z,14.60
2023-01-27T12:56:16.779Z,14.03
2023-01-27T12:58:44.035Z,13.80
2023-01-27T13:01:27.421Z,14.40
2023-01-27T13:03:57.062Z,15.00
2023-01-27T13:06:30.465Z,15.83
2023-01-27T13:08:57.737Z,15.03
2023-01-27T13:11:31.050Z,18.37
2023-01-27T13:13:57.801Z,14.13
2023-01-27T13:16:26.452Z,13.33
2023-01-27T13:18:56.127Z,13.83
2023-01-27T13:21:25.837Z,13.93
2023-01-27T13:23:52.713Z,14.57
2023-01-27T13:26:22.544Z,13.33
2023-01-27T13:28:53.438Z,11.43
2023-01-27T13:31:22.699Z,15.20
2023-01-27T13:33:52.570Z,9.97
2023-01-27T13:36:27.629Z,10.07
2023-01-27T13:38:58.976Z,9.50
2023-01-27T13:41:30.999Z,8.57
2023-01-27T13:44:01.659Z,7.33
2023-01-27T13:46:30.159Z,8.93
2023-01-27T13:48:58.833Z,8.13
2023-01-27T13:51:28.211Z,6.63
2023-01-27T13:53:58.286Z,7.30
2023-01-27T13:56:34.817Z,7.57
2023-01-27T13:59:08.101Z,7.10
2023-01-27T14:01:42.872Z,7.07
2023-01-27T14:04:30.668Z,5.03
2023-01-27T14:07:04.875Z,4.03
2023-01-27T14:09:50.032Z,4.77
2023-01-27T14:12:29.602Z,4.90
2023-01-27T14:15:01.362Z,3.93
2023-01-27T14:17:34.388Z,3.80
2023-01-27T14:20:26.333Z,4.03
2023-01-27T14:22:59.885Z,4.30
2023-01-27T14:25:32.806Z,4.20
2023-01-27T14:28:10.036Z,4.47
2023-01-27T14:30:40.845Z,4.03
2023-01-27T14:33:14.431Z,3.70
2023-01-27T14:35:44.685Z,4.50
2023-01-27T14:38:16.530Z,4.27
2023-01-27T14:40:51.449Z,4.80
2023-01-27T14:43:25.351Z,4.30
2023-01-27T14:45:55.703Z,4.37
2023-01-27T14:48:38.465Z,4.90
2023-01-27T14:51:07.892Z,4.90
2023-01-27T14:53:49.359Z,14.03
2023-01-27T14:56:23.419Z,11.27
2023-01-27T14:58:57.305Z,8.63
2023-01-27T15:01:32.494Z,25.13
2023-01-27T15:04:21.601Z,41.33
2023-01-27T15:06:50.909Z,10.63
2023-01-27T15:09:27.942Z,5.73
2023-01-27T15:12:08.075Z,5.77
2023-01-27T15:14:56.966Z,6.27
2023-01-27T15:17:42.329Z,6.70
2023-01-27T15:20:25.075Z,5.63
2023-01-27T15:23:31.262Z,9.23
2023-01-27T15:25:59.554Z,4.60
2023-01-27T15:28:28.940Z,5.73
2023-01-27T15:31:20.860Z,7.60
2023-01-27T15:33:52.897Z,4.80
2023-01-27T15:36:33.088Z,6.23
2023-01-27T15:39:03.528Z,5.07
2023-01-27T15:41:29.677Z,6.10
2023-01-27T15:44:15.369Z,9.03
2023-01-27T15:46:43.924Z,8.77
2023-01-27T15:49:16.793Z,9.17
2023-01-27T15:51:43.021Z,12.10
2023-01-27T15:54:13.892Z,8.30
2023-01-27T15:56:46.562Z,6.73
2023-01-27T15:59:18.537Z,6.07
2023-01-27T16:01:47.519Z,5.10
2023-01-27T16:04:15.731Z,6.83
2023-01-27T16:06:47.823Z,10.63
2023-01-27T16:09:20.925Z,17.87
2023-01-27T16:11:58.552Z,9.93
2023-01-27T16:14:42.376Z,7.20
2023-01-27T16:17:21.535Z,6.03
2023-01-27T16:19:54.373Z,5.80
2023-01-27T16:22:22.752Z,6.03
2023-01-27T16:24:55.357Z,11.07
2023-01-27T16:27:35.857Z,8.73
2023-01-27T16:30:12.225Z,6.07
2023-01-27T16:32:42.044Z,7.07
2023-01-27T16:35:16.218Z,5.73
2023-01-27T16:37:59.454Z,5.80
2023-01-27T16:40:27.046Z,7.07
2023-01-27T16:42:56.248Z,5.30
2023-01-27T16:45:23.945Z,5.43
2023-01-27T16:47:53.830Z,6.07
2023-01-27T16:50:34.750Z,5.90
2023-01-27T16:53:01.472Z,7.23
2023-01-27T16:55:27.617Z,7.33
2023-01-27T16:57:54.277Z,5.60
2023-01-27T17:00:22.881Z,12.43
2023-01-27T17:02:49.787Z,9.63
2023-01-27T17:05:18.415Z,8.77
2023-01-27T17:08:01.482Z,8.33
2023-01-27T17:10:34.749Z,10.90
2023-01-27T17:13:01.503Z,16.43
2023-01-27T17:15:30.897Z,11.67
2023-01-27T17:17:57.533Z,11.73
2023-01-27T17:20:27.048Z,8.70
2023-01-27T17:22:54.085Z,10.07
2023-01-27T17:25:28.613Z,7.50
2023-01-27T17:27:55.637Z,7.30
2023-01-27T17:30:23.568Z,10.23
2023-01-27T17:32:50.939Z,11.93
2023-01-27T17:35:21.443Z,13.83
2023-01-27T17:37:48.521Z,23.23
2023-01-27T17:40:16.618Z,14.77
2023-01-27T17:42:43.515Z,17.77
2023-01-27T17:45:23.874Z,11.97
2023-01-27T17:47:50.181Z,6.60
2023-01-27T17:50:17.304Z,7.93
2023-01-27T17:52:52.157Z,9.07
2023-01-27T17:55:21.791Z,8.77
2023-01-27T17:57:49.885Z,9.83
2023-01-27T18:00:23.492Z,11.83
2023-01-27T18:02:53.688Z,10.07
2023-01-27T18:05:21.775Z,13.60
2023-01-27T18:07:48.086Z,7.60
2023-01-27T18:10:25.723Z,8.60
2023-01-27T18:12:52.339Z,7.33
2023-01-27T18:15:47.814Z,6.83
2023-01-27T18:18:23.093Z,13.60
2023-01-27T18:20:52.901Z,16.83
2023-01-27T18:23:23.729Z,11.77
2023-01-27T18:26:01.576Z,9.27
2023-01-27T18:28:28.618Z,13.83
2023-01-27T18:30:54.845Z,7.73
2023-01-27T18:33:21.199Z,8.63
2023-01-27T18:35:55.781Z,9.47
2023-01-27T18:38:23.831Z,10.93
2023-01-27T18:40:49.995Z,8.67
2023-01-27T18:43:16.746Z,10.97
2023-01-27T18:45:43.515Z,10.57
2023-01-27T18:48:10.238Z,10.37
2023-01-27T18:50:40.775Z,7.93
2023-01-27T18:53:13.694Z,9.37
2023-01-27T18:55:39.831Z,9.60
2023-01-27T18:58:05.974Z,10.57
2023-01-27T19:00:36.732Z,9.17
2023-01-27T19:03:06.981Z,10.33
2023-01-27T19:05:34.490Z,12.80
2023-01-27T19:08:01.022Z,10.83
2023-01-27T19:10:28.748Z,9.13
2023-01-27T19:12:57.519Z,9.70
2023-01-27T19:15:24.930Z,10.20
2023-01-27T19:17:53.340Z,10.50
2023-01-27T19:20:23.521Z,9.93
2023-01-27T19:22:52.509Z,10.10
2023-01-27T19:25:19.038Z,11.53
2023-01-27T19:27:50.998Z,15.30
2023-01-27T19:30:24.396Z,12.57
2023-01-27T19:32:50.614Z,13.17
2023-01-27T19:35:17.383Z,12.50
2023-01-27T19:37:43.621Z,15.00
2023-01-27T19:40:15.901Z,10.60
2023-01-27T19:42:42.064Z,13.07
2023-01-27T19:45:10.500Z,10.83
2023-01-27T19:47:37.062Z,9.23
2023-01-27T19:50:05.831Z,10.17
2023-01-27T19:52:32.623Z,10.13
2023-01-27T19:54:59.403Z,14.47
2023-01-27T19:57:25.609Z,10.60
2023-01-27T19:59:51.756Z,12.27
2023-01-27T20:02:17.919Z,11.23
2023-01-27T20:04:44.120Z,11.20
2023-01-27T20:07:11.727Z,12.20
2023-01-27T20:09:38.485Z,12.17
2023-01-27T20:12:04.685Z,11.63
2023-01-27T20:14:31.477Z,10.93
2023-01-27T20:16:57.859Z,11.80
2023-01-27T20:19:23.979Z,17.03
2023-01-27T20:21:50.303Z,15.17
2023-01-27T20:24:17.842Z,10.43
2023-01-27T20:26:44.702Z,13.00
2023-01-27T20:29:10.898Z,10.53
2023-01-27T20:31:37.785Z,10.83
2023-01-27T20:34:03.900Z,9.00
2023-01-27T20:36:30.065Z,9.03
2023-01-27T20:38:56.169Z,9.70
2023-01-27T20:41:23.471Z,9.90
2023-01-27T20:43:54.873Z,10.47
2023-01-27T20:46:21.282Z,12.03
2023-01-27T20:48:47.571Z,11.00
2023-01-27T20:51:15.053Z,10.90
2023-01-27T20:53:44.514Z,11.57
2023-01-27T20:56:11.400Z,11.03
2023-01-27T20:58:37.686Z,34.33
2023-01-27T21:01:07.996Z,12.37
2023-01-27T21:03:35.335Z,9.20
2023-01-27T21:06:02.777Z,5.33
2023-01-27T21:08:29.322Z,9.73
2023-01-27T21:10:55.689Z,13.47
2023-01-27T21:13:21.805Z,8.67
2023-01-27T21:15:48.753Z,9.07
2023-01-27T21:18:16.319Z,17.57
2023-01-27T21:20:46.532Z,13.77
2023-01-27T21:23:12.713Z,6.93
2023-01-27T21:25:38.823Z,5.53
2023-01-27T21:28:05.053Z,7.20
2023-01-27T21:30:31.185Z,4.40
2023-01-27T21:32:57.360Z,4.03
2023-01-27T21:35:24.360Z,4.47
2023-01-27T21:37:51.009Z,4.37
2023-01-27T21:40:17.283Z,4.67
2023-01-27T21:43:01.816Z,10.33
2023-01-27T21:45:28.091Z,5.73
2023-01-27T21:47:54.214Z,4.53
2023-01-27T21:50:20.382Z,5.53
2023-01-27T21:52:48.334Z,4.20
2023-01-27T21:55:16.719Z,4.87
2023-01-27T21:57:44.952Z,5.63
2023-01-27T22:00:12.952Z,7.10
2023-01-27T22:02:39.884Z,5.87
2023-01-27T22:05:06.829Z,8.37
2023-01-27T22:07:37.327Z,6.80
2023-01-27T22:10:05.483Z,4.77
2023-01-27T22:12:31.705Z,6.50
2023-01-27T22:14:57.850Z,4.93
2023-01-27T22:17:23.988Z,8.03
2023-01-27T22:19:50.114Z,5.13
2023-01-27T22:22:16.249Z,6.90
2023-01-27T22:24:42.403Z,6.83
2023-01-27T22:27:09.141Z,4.43
2023-01-27T22:29:35.291Z,5.63
2023-01-27T22:32:01.453Z,4.90
2023-01-27T22:34:27.600Z,4.67
2023-01-27T22:36:53.846Z,5.77
2023-01-27T22:39:20.070Z,5.87
2023-01-27T22:41:46.671Z,5.23
2023-01-27T22:44:13.769Z,5.17
2023-01-27T22:46:41.571Z,6.80
2023-01-27T22:49:08.164Z,7.40
2023-01-27T22:51:34.276Z,8.83
2023-01-27T22:54:00.643Z,5.37
2023-01-27T22:56:26.825Z,6.83
2023-01-27T22:58:52.925Z,7.47
2023-01-27T23:01:19.753Z,5.93
2023-01-27T23:03:45.924Z,6.03
2023-01-27T23:06:12.229Z,4.97
2023-01-27T23:08:38.408Z,7.17
2023-01-27T23:11:05.960Z,6.50
2023-01-27T23:13:33.104Z,5.70
2023-01-27T23:15:59.235Z,5.37
2023-01-27T23:18:26.009Z,5.53
2023-01-27T23:20:52.138Z,5.23
2023-01-27T23:23:18.744Z,6.93
2023-01-27T23:25:46.031Z,4.30
2023-01-27T23:28:12.961Z,7.23
2023-01-27T23:30:42.264Z,4.80
2023-01-27T23:33:08.413Z,6.00
2023-01-27T23:35:35.140Z,3.97
2023-01-27T23:38:01.961Z,4.57
2023-01-27T23:40:28.091Z,5.63
2023-01-27T23:42:54.188Z,4.13
2023-01-27T23:45:20.359Z,3.70
2023-01-27T23:47:46.452Z,4.57
2023-01-27T23:50:12.561Z,4.07
2023-01-27T23:52:39.342Z,6.33
2023-01-27T23:55:06.406Z,4.67
2023-01-27T23:57:32.771Z,4.40
2023-01-27T23:59:58.992Z,6.00
